Weather at Sheikh Hazza bin Zayed Palace Heliport

Public forecast

Using degrees Celsius for public forecast. Weather courtesy of forecast.io.

Closest aviation weather report (METAR) to Sheikh Hazza bin Zayed Palace Heliport

Closest report is Al Bateen Executive Airport, 2.4 nm (4.5 km) NW.

2024/02/23 05:00 (retrieved 57 minutes ago)

OMAD 230500Z 30005KT 9999 FEW020 21/16 Q1019 NOSIG

Closest aviation forecast (TAF) to Sheikh Hazza bin Zayed Palace Heliport

Forecast is more than 6 hours old.

Closest forecast is Hamad International Airport, 165.3 nm (306.2 km) WNW.

2024/02/22 18:00 (retrieved 12 hours ago)

TAF OTHH 221701Z 2218/2324 32008KT 8000 NSC PROB30 TEMPO 2300/2305 5000 HZ TEMPO 2311/2315 02010KT